Roanoke Regional Woodrum Field
KROA : now visible

Airfield :











YOU CAN JOIN US ON...

 
LOGIN :

Register | Disclaimer

   EN    FR    IT 

 









Legend :    VFR   Marginal VFR   IFR   Intensive IFR   Very Intensive IFR
Visi :
Ceiling :
>= 8 km
>= 3000ft
5 to 8 km
1000 to 3000 ft
1500m to 5 km
500 to 1000 ft
800 to 1500m
200 to 500 ft
< 800m
< 200 ft
Symbols :   Thunderstorms  Fog  Heavy snow  Heavy precipitations  Wind > 20 kt






- Airport Elevation : 1175 ft
- IATA code : ROA


KROA - Roanoke Regional Woodrum Field

CURRENT METAR :
  • 070054Z 36008KT 10SM CLR 19/09 A3002 RMK AO2 SLP158 T01940089

EXPIRED METARs :
  • 062354Z 02006KT 10SM FEW080 21/09 A2999 RMK AO2 SLP151 T02060089 10244 20206 55001
  • 062254Z 33008KT 10SM FEW080 22/10 A2999 RMK AO2 SLP149 T02220100
  • 062154Z 30010KT 10SM FEW085 23/08 A2999 RMK AO2 SLP149 T02280083

TAF KROA
Valid from the 07 at 00:00 until the 08 at 00:00 UTC


062320Z 0700/0724 32006KT P6SM FEW100
FM071800 26009G19KT P6SM SCT060 BKN120



MET'MAP, your aeronautical weather chart ! - Copyright ORBIFLY December 2007 - Disclaimer

ORBIFLY MET'MAP TEAM :

Programming & Development : Alexandra Zaïnal
Concept & original design : Baudouin d'Aumeries
Assistance for programming : Marc-Olivier Méhu
Technical & hardware support : Manuel Goepfert

Contact : metmap@orbifly.com




SOURCES & CREDITS :

   NOAA       Earth
Advisory